Terminal Aerodrome Forecast
Issued by NWS

Home | Current Version | Previous Version | Text Only | Print | Product List | Glossary On
Versions: 1 2 3 4 5 6 7 8 9 10 11 12 13 14 15
300
FTUS43 KPAH 251132
TAFCGI
TAF
KCGI 251132Z 2512/2612 18004KT P6SM -SHRA VCTS BKN060CB BKN250
     FM251500 19010G18KT P6SM SCT040 BKN250
     FM260000 19009KT P6SM FEW050 SCT250=

USA.gov is the U.S. government's official web portal to all federal, state and local government web resources and services.